Terminal Aerodrome Forecast
Issued by NWS

Home | Current Version | Previous Version | Text Only | Print | Product List | Glossary On
Versions: 1 2 3 4 5 6 7 8 9 10 11 12 13 14 15 16 17 18 19 20 21 22 23 24 25 26 27 28 29 30 31 32 33 34 35 36 37 38 39 40 41 42 43 44 45 46 47 48 49 50
000
FTUS41 KCTP 232335
TAFAOO
TAF
KAOO 232335Z 2400/2424 22010KT 5SM -RA BR SCT020 BKN040
      TEMPO 2400/2402 2SM RA BR OVC020
     FM240400 24010KT 2SM RA BR OVC008
     FM240900 30013KT 3SM -SHRA BR OVC008
     FM241500 29013G23KT P6SM BKN050=

USA.gov is the U.S. government's official web portal to all federal, state and local government web resources and services.